createdAt,value
2022-08-08T00:02:03.508Z,10.40
2022-08-08T00:04:57.878Z,10.30
2022-08-08T00:07:49.619Z,10.30
2022-08-08T00:10:45.978Z,10.30
2022-08-08T00:14:17.100Z,10.20
2022-08-08T00:16:53.059Z,10.20
2022-08-08T00:19:51.374Z,10.20
2022-08-08T00:22:42.263Z,10.10
2022-08-08T00:25:44.643Z,10.10
2022-08-08T00:28:36.692Z,10.10
2022-08-08T00:32:20.005Z,10.10
2022-08-08T00:35:04.151Z,10.00
2022-08-08T00:38:02.202Z,10.00
2022-08-08T00:41:14.349Z,10.00
2022-08-08T00:44:08.394Z,10.00
2022-08-08T00:47:23.345Z,10.00
2022-08-08T00:50:25.207Z,9.90
2022-08-08T00:53:20.577Z,9.90
2022-08-08T00:56:31.159Z,9.90
2022-08-08T00:59:46.657Z,9.90
2022-08-08T01:03:59.768Z,9.80
2022-08-08T01:06:42.962Z,9.80
2022-08-08T01:10:06.222Z,9.80
2022-08-08T01:13:14.952Z,9.70
2022-08-08T01:16:28.054Z,9.70
2022-08-08T01:20:01.982Z,9.70
2022-08-08T01:24:02.909Z,9.60
2022-08-08T01:26:37.884Z,9.60
2022-08-08T01:29:59.117Z,9.60
2022-08-08T01:33:23.363Z,9.50
2022-08-08T01:36:32.713Z,9.50
2022-08-08T01:39:28.365Z,9.50
2022-08-08T01:42:35.735Z,9.50
2022-08-08T01:45:37.718Z,9.40
2022-08-08T01:48:39.738Z,9.40
2022-08-08T01:52:42.365Z,9.30
2022-08-08T01:55:45.473Z,9.30
2022-08-08T01:58:39.580Z,9.30
2022-08-08T02:02:00.609Z,9.20
2022-08-08T02:04:58.789Z,9.20
2022-08-08T02:07:56.254Z,9.20
2022-08-08T02:10:53.673Z,9.10
2022-08-08T02:13:54.259Z,9.10
2022-08-08T02:16:57.996Z,9.10
2022-08-08T02:20:09.500Z,9.10
2022-08-08T02:23:05.178Z,9.00
2022-08-08T02:26:01.768Z,9.00
2022-08-08T02:29:00.366Z,9.00
2022-08-08T02:32:08.609Z,8.90
2022-08-08T02:35:10.367Z,8.90
2022-08-08T02:38:25.539Z,8.90
2022-08-08T02:41:59.204Z,8.90
2022-08-08T02:45:01.398Z,8.90
2022-08-08T02:48:26.106Z,8.80
2022-08-08T02:51:47.591Z,8.80
2022-08-08T02:55:19.592Z,8.80
2022-08-08T02:58:38.813Z,8.70
2022-08-08T03:01:52.460Z,8.70
2022-08-08T03:05:04.905Z,8.70
2022-08-08T03:08:20.989Z,8.70
2022-08-08T03:11:25.614Z,8.60
2022-08-08T03:15:58.955Z,8.60
2022-08-08T03:17:59.940Z,8.60
2022-08-08T03:20:53.577Z,8.60
2022-08-08T03:23:59.902Z,8.60
2022-08-08T03:26:53.050Z,8.60
2022-08-08T03:29:55.631Z,8.60
2022-08-08T03:33:07.671Z,8.60
2022-08-08T03:36:19.758Z,8.60
2022-08-08T03:39:15.587Z,8.60
2022-08-08T03:42:28.559Z,8.60
2022-08-08T03:46:03.230Z,8.60
2022-08-08T03:49:10.056Z,8.60
2022-08-08T03:51:40.489Z,8.60
2022-08-08T03:54:41.590Z,8.60
2022-08-08T03:58:34.654Z,8.70
2022-08-08T04:00:56.422Z,8.70
2022-08-08T04:03:58.427Z,8.70
2022-08-08T04:06:57.078Z,8.70
2022-08-08T04:10:02.856Z,8.70
2022-08-08T04:12:55.557Z,8.70
2022-08-08T04:16:03.443Z,8.70
2022-08-08T04:18:52.379Z,8.80
2022-08-08T04:21:45.816Z,8.80
2022-08-08T04:24:34.101Z,8.90
2022-08-08T04:28:03.008Z,8.90
2022-08-08T04:30:36.436Z,9.00
2022-08-08T04:33:27.600Z,9.10
2022-08-08T04:36:15.783Z,9.10
2022-08-08T04:40:03.378Z,9.20
2022-08-08T04:42:15.684Z,9.30
2022-08-08T04:45:06.480Z,9.40
2022-08-08T04:47:54.348Z,9.50
2022-08-08T04:50:46.003Z,9.60
2022-08-08T04:54:36.194Z,9.70
2022-08-08T04:56:45.712Z,9.90
2022-08-08T04:59:33.919Z,10.10
2022-08-08T05:02:32.628Z,10.40
2022-08-08T05:05:44.180Z,10.60
2022-08-08T05:08:28.838Z,10.90
2022-08-08T05:11:23.943Z,11.10
2022-08-08T05:14:20.574Z,11.40
2022-08-08T05:17:13.511Z,11.70
2022-08-08T05:20:13.982Z,11.90
2022-08-08T05:23:03.695Z,12.00
2022-08-08T05:25:55.292Z,12.20
2022-08-08T05:28:55.885Z,12.40
2022-08-08T05:32:05.556Z,12.60
2022-08-08T05:34:53.258Z,12.80
2022-08-08T05:37:54.636Z,13.00
2022-08-08T05:40:58.304Z,13.10
2022-08-08T05:44:03.376Z,13.20
2022-08-08T05:46:52.712Z,13.40
2022-08-08T05:49:41.848Z,13.50
2022-08-08T05:52:44.112Z,13.70
2022-08-08T05:56:10.102Z,13.90
2022-08-08T05:58:53.911Z,14.00
2022-08-08T06:01:56.143Z,14.20
2022-08-08T06:04:54.628Z,14.40
2022-08-08T06:07:46.715Z,14.60
2022-08-08T06:10:39.249Z,14.80
2022-08-08T06:13:35.627Z,15.00
2022-08-08T06:16:30.298Z,15.10
2022-08-08T06:19:49.065Z,15.20
2022-08-08T06:22:37.549Z,15.30
2022-08-08T06:26:39.073Z,15.50
2022-08-08T06:28:50.279Z,15.60
2022-08-08T06:31:52.388Z,15.90
2022-08-08T06:35:12.263Z,16.10
2022-08-08T06:38:14.239Z,16.30
2022-08-08T06:41:13.470Z,16.60
2022-08-08T06:44:06.435Z,16.80
2022-08-08T06:47:00.377Z,17.00
2022-08-08T06:49:56.575Z,17.30
2022-08-08T06:52:47.905Z,17.50
2022-08-08T06:55:41.520Z,17.80
2022-08-08T06:58:33.540Z,17.90
2022-08-08T07:02:26.505Z,18.10
2022-08-08T07:04:48.032Z,18.20
2022-08-08T07:07:53.109Z,18.40
2022-08-08T07:10:49.888Z,18.60
2022-08-08T07:14:00.420Z,18.70
2022-08-08T07:16:54.290Z,18.90
2022-08-08T07:19:47.579Z,19.00
2022-08-08T07:22:39.623Z,19.20
2022-08-08T07:25:31.904Z,19.40
2022-08-08T07:28:22.574Z,19.60
2022-08-08T07:31:14.946Z,19.90
2022-08-08T07:34:09.174Z,20.10
2022-08-08T07:36:58.846Z,20.30
2022-08-08T07:39:57.740Z,20.50
2022-08-08T07:42:53.601Z,20.70
2022-08-08T07:46:04.777Z,20.90
2022-08-08T07:48:51.819Z,21.00
2022-08-08T07:51:52.887Z,21.30
2022-08-08T07:54:44.959Z,21.50
2022-08-08T07:57:48.162Z,21.80
2022-08-08T08:00:50.492Z,22.00
2022-08-08T08:03:44.039Z,22.10
2022-08-08T08:06:38.630Z,22.20
2022-08-08T08:09:33.092Z,22.20
2022-08-08T08:12:31.497Z,22.30
2022-08-08T08:15:25.871Z,22.40
2022-08-08T08:18:31.661Z,22.50
2022-08-08T08:21:35.532Z,22.70
2022-08-08T08:24:35.249Z,22.90
2022-08-08T08:27:24.570Z,23.10
2022-08-08T08:30:19.310Z,23.20
2022-08-08T08:33:11.075Z,23.10
2022-08-08T08:36:18.726Z,23.30
2022-08-08T08:39:17.505Z,23.40
2022-08-08T08:42:12.253Z,23.30
2022-08-08T08:45:02.210Z,23.40
2022-08-08T08:48:09.106Z,23.60
2022-08-08T08:51:04.971Z,23.70
2022-08-08T08:54:00.761Z,24.00
2022-08-08T08:56:57.266Z,24.20
2022-08-08T08:59:58.603Z,24.60
2022-08-08T09:02:48.485Z,24.60
2022-08-08T09:05:54.350Z,24.70
2022-08-08T09:08:51.954Z,24.40
2022-08-08T09:11:47.475Z,24.20
2022-08-08T09:14:55.402Z,24.40
2022-08-08T09:17:55.278Z,24.30
2022-08-08T09:22:05.306Z,24.50
2022-08-08T09:23:55.065Z,24.70
2022-08-08T09:26:47.341Z,25.10
2022-08-08T09:29:52.688Z,25.50
2022-08-08T09:33:01.268Z,25.20
2022-08-08T09:35:53.738Z,25.00
2022-08-08T09:38:53.794Z,25.20
2022-08-08T09:42:14.953Z,25.10
2022-08-08T09:44:58.691Z,24.60
2022-08-08T09:48:10.060Z,24.60
2022-08-08T09:51:04.659Z,24.90
2022-08-08T09:54:07.834Z,25.10
2022-08-08T09:57:03.025Z,25.30
2022-08-08T10:00:28.922Z,25.80
2022-08-08T10:03:03.934Z,26.00
2022-08-08T10:05:51.727Z,26.10
2022-08-08T10:08:44.207Z,26.20
2022-08-08T10:12:28.418Z,26.30
2022-08-08T10:14:43.359Z,26.10
2022-08-08T10:17:57.335Z,25.90
2022-08-08T10:20:51.066Z,25.90
2022-08-08T10:23:55.919Z,26.00
2022-08-08T10:26:56.726Z,26.30
2022-08-08T10:29:59.198Z,26.20
2022-08-08T10:32:51.410Z,25.90
2022-08-08T10:36:07.578Z,25.50
2022-08-08T10:38:48.459Z,25.20
2022-08-08T10:41:58.487Z,25.40
2022-08-08T10:44:46.074Z,25.60
2022-08-08T10:47:43.274Z,25.60
2022-08-08T10:50:33.426Z,25.10
2022-08-08T10:53:20.710Z,24.70
2022-08-08T10:56:35.686Z,24.40
2022-08-08T10:59:23.938Z,24.70
2022-08-08T11:02:11.790Z,25.60
2022-08-08T11:04:59.476Z,26.80
2022-08-08T11:08:30.684Z,27.70
2022-08-08T11:11:08.042Z,28.30
2022-08-08T11:14:16.242Z,29.00
2022-08-08T11:17:04.297Z,29.00
2022-08-08T11:19:53.231Z,29.00
2022-08-08T11:22:41.968Z,29.20
2022-08-08T11:25:52.304Z,29.40
2022-08-08T11:28:38.595Z,29.80
2022-08-08T11:31:46.594Z,30.00
2022-08-08T11:34:52.627Z,30.10
2022-08-08T11:38:36.202Z,30.00
2022-08-08T11:40:57.943Z,30.20
2022-08-08T11:43:45.591Z,30.50
2022-08-08T11:46:38.307Z,30.40
2022-08-08T11:49:27.765Z,30.60
2022-08-08T11:52:18.587Z,30.00
2022-08-08T11:55:16.554Z,28.90
2022-08-08T11:58:08.407Z,28.30
2022-08-08T12:01:12.271Z,27.60
2022-08-08T12:04:06.781Z,27.20
2022-08-08T12:07:03.925Z,27.30
2022-08-08T12:09:59.715Z,27.90
2022-08-08T12:12:54.544Z,28.50
2022-08-08T12:15:49.064Z,29.10
2022-08-08T12:18:46.754Z,29.40
2022-08-08T12:22:00.581Z,30.20
2022-08-08T12:24:54.082Z,30.30
2022-08-08T12:27:45.718Z,29.70
2022-08-08T12:30:36.099Z,29.00
2022-08-08T12:33:37.036Z,29.10
2022-08-08T12:36:28.516Z,29.30
2022-08-08T12:40:01.769Z,29.50
2022-08-08T12:42:47.617Z,29.40
2022-08-08T12:45:58.364Z,28.40
2022-08-08T12:49:18.993Z,28.10
2022-08-08T12:52:02.072Z,28.10
2022-08-08T12:55:02.052Z,28.90
2022-08-08T12:57:57.064Z,28.90
2022-08-08T13:00:44.552Z,29.00
2022-08-08T13:03:34.972Z,29.30
2022-08-08T13:06:26.460Z,29.80
2022-08-08T13:09:14.026Z,29.70
2022-08-08T13:12:24.704Z,29.70
2022-08-08T13:15:12.242Z,30.00
2022-08-08T13:18:11.544Z,30.50
2022-08-08T13:21:01.080Z,30.10
2022-08-08T13:23:49.894Z,29.20
2022-08-08T13:26:37.785Z,28.20
2022-08-08T13:29:27.389Z,27.50
2022-08-08T13:32:26.446Z,26.80
2022-08-08T13:35:25.128Z,26.30
2022-08-08T13:38:18.935Z,26.30
2022-08-08T13:41:16.754Z,26.80
2022-08-08T13:44:04.895Z,27.70
2022-08-08T13:46:56.244Z,28.30
2022-08-08T13:50:35.188Z,28.60
2022-08-08T13:52:52.154Z,28.90
2022-08-08T13:55:42.802Z,28.70
2022-08-08T13:58:34.617Z,29.00
2022-08-08T14:01:23.281Z,29.30
2022-08-08T14:04:24.516Z,29.80
2022-08-08T14:07:12.548Z,30.30
2022-08-08T14:10:11.709Z,30.10
2022-08-08T14:13:00.019Z,30.30
2022-08-08T14:15:50.278Z,30.40
2022-08-08T14:18:52.180Z,30.40
2022-08-08T14:21:48.921Z,30.20
2022-08-08T14:24:41.411Z,29.90
2022-08-08T14:27:33.211Z,29.90
2022-08-08T14:30:21.944Z,30.00
2022-08-08T14:33:12.904Z,29.40
2022-08-08T14:36:03.532Z,28.60
2022-08-08T14:38:58.704Z,28.70
2022-08-08T14:41:54.491Z,28.70
2022-08-08T14:44:42.360Z,29.00
2022-08-08T14:47:44.953Z,29.40
2022-08-08T14:50:41.950Z,30.20
2022-08-08T14:53:37.148Z,30.90
2022-08-08T14:56:26.454Z,31.50
2022-08-08T14:59:22.286Z,31.90
2022-08-08T15:02:25.265Z,32.10
2022-08-08T15:05:13.452Z,32.50
2022-08-08T15:08:01.344Z,32.50
2022-08-08T15:10:48.939Z,32.10
2022-08-08T15:13:40.941Z,31.20
2022-08-08T15:16:45.403Z,30.20
2022-08-08T15:19:35.105Z,29.00
2022-08-08T15:22:23.555Z,28.00
2022-08-08T15:25:17.863Z,27.10
2022-08-08T15:28:34.169Z,26.30
2022-08-08T15:31:55.731Z,26.20
2022-08-08T15:34:32.177Z,27.10
2022-08-08T15:37:20.025Z,27.90
2022-08-08T15:40:11.206Z,28.60
2022-08-08T15:43:02.639Z,29.30
2022-08-08T15:46:06.479Z,29.60
2022-08-08T15:48:55.394Z,30.00
2022-08-08T15:51:42.800Z,30.20
2022-08-08T15:54:39.081Z,29.90
2022-08-08T15:57:28.207Z,29.90
2022-08-08T16:00:27.878Z,30.40
2022-08-08T16:03:15.965Z,30.80
2022-08-08T16:06:04.735Z,30.70
2022-08-08T16:13:00.780Z,30.20
2022-08-08T16:13:04.464Z,30.30
2022-08-08T16:15:08.825Z,30.80
2022-08-08T16:18:11.469Z,30.70
2022-08-08T16:21:01.175Z,30.50
2022-08-08T16:23:50.605Z,30.40
2022-08-08T16:26:43.872Z,30.30
2022-08-08T16:29:37.371Z,30.00
2022-08-08T16:32:40.600Z,30.40
2022-08-08T16:35:28.871Z,31.00
2022-08-08T16:38:31.267Z,31.30
2022-08-08T16:41:22.467Z,31.40
2022-08-08T16:44:12.713Z,31.10
2022-08-08T16:47:40.326Z,30.00
2022-08-08T17:03:58.826Z,27.50
2022-08-08T17:06:49.298Z,27.70
2022-08-08T17:09:45.189Z,28.20
2022-08-08T17:12:33.416Z,28.70
2022-08-08T17:15:24.312Z,29.10
2022-08-08T17:18:15.909Z,29.30
2022-08-08T17:21:09.476Z,29.30
2022-08-08T17:24:00.936Z,29.50
2022-08-08T17:26:50.508Z,29.60
2022-08-08T17:29:43.698Z,29.40
2022-08-08T17:34:34.955Z,29.10
2022-08-08T17:35:55.844Z,28.00
2022-08-08T17:39:05.156Z,27.00
2022-08-08T17:42:06.684Z,26.00
2022-08-08T17:44:54.490Z,25.20
2022-08-08T17:47:41.855Z,24.70
2022-08-08T17:50:29.091Z,24.20
2022-08-08T17:53:16.876Z,23.70
2022-08-08T17:56:12.313Z,23.30
2022-08-08T17:58:59.925Z,22.90
2022-08-08T18:01:51.414Z,22.50
2022-08-08T18:04:50.831Z,22.20
2022-08-08T18:08:03.172Z,21.80
2022-08-08T18:10:46.309Z,21.50
2022-08-08T18:13:41.307Z,21.10
2022-08-08T18:16:31.235Z,20.80
2022-08-08T18:19:21.530Z,20.60
2022-08-08T18:22:50.381Z,20.20
2022-08-08T18:25:16.406Z,19.90
2022-08-08T18:28:04.210Z,19.70
2022-08-08T18:30:52.827Z,19.40
2022-08-08T18:34:25.173Z,19.20
2022-08-08T18:36:48.381Z,18.90
2022-08-08T18:39:37.042Z,18.70
2022-08-08T18:42:24.692Z,18.50
2022-08-08T18:46:00.530Z,18.30
2022-08-08T18:48:21.456Z,18.10
2022-08-08T18:51:40.558Z,17.90
2022-08-08T18:54:24.605Z,17.80
2022-08-08T18:57:15.380Z,17.50
2022-08-08T19:00:03.874Z,17.30
2022-08-08T19:02:56.593Z,17.20
2022-08-08T19:05:51.102Z,17.00
2022-08-08T19:08:39.542Z,16.90
2022-08-08T19:11:27.740Z,16.80
2022-08-08T19:14:20.413Z,16.60
2022-08-08T19:17:08.505Z,16.50
2022-08-08T19:20:02.987Z,16.40
2022-08-08T19:22:52.532Z,16.20
2022-08-08T19:26:20.146Z,16.10
2022-08-08T19:28:49.767Z,16.00
2022-08-08T19:31:37.391Z,15.90
2022-08-08T19:34:36.007Z,15.70
2022-08-08T19:37:43.376Z,15.70
2022-08-08T19:40:35.113Z,15.60
2022-08-08T19:43:28.101Z,15.50
2022-08-08T19:46:16.207Z,15.40
2022-08-08T19:49:10.243Z,15.30
2022-08-08T19:51:57.881Z,15.20
2022-08-08T19:54:46.220Z,15.10
2022-08-08T19:57:36.310Z,15.00
2022-08-08T20:00:30.849Z,14.90
2022-08-08T20:04:01.262Z,14.80
2022-08-08T20:06:26.851Z,14.80
2022-08-08T20:09:17.204Z,14.70
2022-08-08T20:12:10.063Z,14.60
2022-08-08T20:14:59.198Z,14.50
2022-08-08T20:17:48.410Z,14.40
2022-08-08T20:20:36.140Z,14.40
2022-08-08T20:23:30.267Z,14.30
2022-08-08T20:26:17.579Z,14.20
2022-08-08T20:29:11.057Z,14.20
2022-08-08T20:32:10.013Z,14.10
2022-08-08T20:35:02.397Z,14.00
2022-08-08T20:37:53.407Z,14.00
2022-08-08T20:40:42.336Z,13.90
2022-08-08T20:43:43.602Z,13.80
2022-08-08T20:46:35.534Z,13.80
2022-08-08T20:49:32.409Z,13.70
2022-08-08T20:52:28.692Z,13.60
2022-08-08T20:55:22.765Z,13.50
2022-08-08T20:58:13.975Z,13.50
2022-08-08T21:01:10.913Z,13.40
2022-08-08T21:04:07.557Z,13.40
2022-08-08T21:07:05.004Z,13.30
2022-08-08T21:10:07.930Z,13.30
2022-08-08T21:13:00.086Z,13.20
2022-08-08T21:16:06.259Z,13.20
2022-08-08T21:18:57.350Z,13.10
2022-08-08T21:21:44.940Z,13.00
2022-08-08T21:24:34.599Z,13.00
2022-08-08T21:28:06.448Z,13.00
2022-08-08T21:30:34.322Z,12.90
2022-08-08T21:33:22.657Z,12.90
2022-08-08T21:36:20.458Z,12.90
2022-08-08T21:39:08.259Z,12.90
2022-08-08T21:41:59.142Z,13.00
2022-08-08T21:44:58.532Z,13.00
2022-08-08T21:48:05.191Z,13.00
2022-08-08T21:50:54.123Z,13.00
2022-08-08T21:54:30.894Z,13.00
2022-08-08T21:56:49.914Z,13.00
2022-08-08T22:00:02.039Z,13.00
2022-08-08T22:02:47.210Z,12.90
2022-08-08T22:05:37.646Z,12.90
2022-08-08T22:08:37.411Z,12.80
2022-08-08T22:11:52.908Z,12.80
2022-08-08T22:14:37.174Z,12.70
2022-08-08T22:17:25.909Z,12.70
2022-08-08T22:20:23.475Z,12.60
2022-08-08T22:23:11.526Z,12.50
2022-08-08T22:26:27.012Z,12.50
2022-08-08T22:29:56.529Z,12.40
2022-08-08T22:32:17.965Z,12.40
2022-08-08T22:35:08.251Z,12.30
2022-08-08T22:38:00.139Z,12.30
2022-08-08T22:40:49.004Z,12.30
2022-08-08T22:43:39.352Z,12.20
2022-08-08T22:46:45.744Z,12.20
2022-08-08T22:49:33.567Z,12.20
2022-08-08T22:52:25.841Z,12.10
2022-08-08T22:55:13.490Z,12.10
2022-08-08T22:58:00.986Z,12.00
2022-08-08T23:00:54.192Z,12.00
2022-08-08T23:03:54.670Z,12.00
2022-08-08T23:06:42.836Z,12.00
2022-08-08T23:09:39.320Z,11.90
2022-08-08T23:12:41.395Z,11.90
2022-08-08T23:16:38.720Z,11.90
2022-08-08T23:18:36.735Z,11.80
2022-08-08T23:21:26.665Z,11.80
2022-08-08T23:24:22.564Z,11.80
2022-08-08T23:27:17.330Z,11.70
2022-08-08T23:30:22.118Z,11.70
2022-08-08T23:33:18.860Z,11.70
2022-08-08T23:36:09.296Z,11.60
2022-08-08T23:38:56.864Z,11.60
2022-08-08T23:41:46.892Z,11.60
2022-08-08T23:44:36.993Z,11.60
2022-08-08T23:49:00.665Z,11.60
2022-08-08T23:50:34.570Z,11.60
2022-08-08T23:54:04.763Z,11.60
2022-08-08T23:56:32.519Z,11.60
2022-08-08T23:59:21.665Z,11.50
